createdAt,value
2023-05-06T00:02:19.914Z,12.65
2023-05-06T00:04:46.418Z,12.66
2023-05-06T00:07:13.009Z,12.67
2023-05-06T00:09:39.424Z,12.68
2023-05-06T00:12:05.892Z,12.63
2023-05-06T00:14:32.317Z,12.63
2023-05-06T00:16:58.773Z,12.63
2023-05-06T00:19:25.188Z,12.62
2023-05-06T00:21:51.628Z,12.68
2023-05-06T00:24:18.082Z,12.73
2023-05-06T00:26:44.496Z,12.74
2023-05-06T00:29:10.889Z,12.73
2023-05-06T00:31:37.385Z,12.70
2023-05-06T00:34:03.985Z,12.68
2023-05-06T00:36:31.561Z,12.74
2023-05-06T00:38:58.028Z,12.74
2023-05-06T00:41:24.512Z,12.70
2023-05-06T00:43:52.287Z,12.65
2023-05-06T00:46:18.851Z,12.63
2023-05-06T00:48:45.444Z,12.55
2023-05-06T00:51:12.810Z,12.62
2023-05-06T00:53:39.945Z,12.68
2023-05-06T00:56:06.486Z,12.69
2023-05-06T00:58:34.127Z,12.69
2023-05-06T01:01:01.693Z,12.66
2023-05-06T01:03:28.405Z,12.64
2023-05-06T01:06:11.236Z,12.62
2023-05-06T01:08:46.913Z,12.57
2023-05-06T01:11:24.169Z,12.49
2023-05-06T01:13:59.134Z,12.42
2023-05-06T01:16:30.791Z,12.35
2023-05-06T01:19:00.236Z,12.24
2023-05-06T01:21:34.528Z,12.18
2023-05-06T01:24:01.719Z,12.14
2023-05-06T01:26:28.172Z,12.05
2023-05-06T01:28:54.856Z,11.98
2023-05-06T01:31:25.828Z,11.94
2023-05-06T01:34:14.106Z,11.84
2023-05-06T01:36:55.431Z,11.77
2023-05-06T01:39:26.347Z,11.69
2023-05-06T01:41:57.314Z,11.69
2023-05-06T01:44:24.862Z,11.69
2023-05-06T01:46:53.759Z,11.67
2023-05-06T01:49:22.036Z,11.63
2023-05-06T01:51:53.813Z,11.57
2023-05-06T01:54:20.377Z,11.58
2023-05-06T01:56:47.008Z,11.49
2023-05-06T01:59:14.848Z,11.44
2023-05-06T02:01:41.364Z,11.47
2023-05-06T02:04:07.838Z,11.46
2023-05-06T02:06:34.343Z,11.46
2023-05-06T02:09:01.038Z,11.44
2023-05-06T02:11:28.755Z,11.40
2023-05-06T02:14:02.057Z,11.41
2023-05-06T02:16:30.788Z,11.29
2023-05-06T02:18:57.353Z,11.25
2023-05-06T02:21:23.844Z,11.25
2023-05-06T02:23:50.620Z,11.20
2023-05-06T02:26:17.403Z,11.11
2023-05-06T02:28:43.827Z,11.14
2023-05-06T02:31:16.115Z,11.09
2023-05-06T02:33:43.394Z,11.09
2023-05-06T02:36:11.203Z,11.07
2023-05-06T02:38:37.655Z,11.05
2023-05-06T02:41:04.111Z,11.04
2023-05-06T02:43:30.562Z,11.03
2023-05-06T02:45:58.174Z,11.06
2023-05-06T02:48:25.562Z,11.04
2023-05-06T02:50:52.033Z,11.02
2023-05-06T02:53:18.478Z,11.07
2023-05-06T02:55:44.920Z,11.06
2023-05-06T02:58:11.310Z,11.08
2023-05-06T03:00:37.724Z,11.10
2023-05-06T03:03:04.289Z,11.06
2023-05-06T03:05:30.773Z,11.09
2023-05-06T03:07:57.543Z,11.10
2023-05-06T03:10:24.049Z,11.07
2023-05-06T03:12:51.107Z,11.05
2023-05-06T03:15:17.866Z,11.05
2023-05-06T03:17:46.506Z,11.10
2023-05-06T03:20:13.771Z,11.04
2023-05-06T03:22:45.684Z,11.04
2023-05-06T03:25:12.320Z,11.03
2023-05-06T03:27:40.733Z,11.03
2023-05-06T03:30:15.381Z,10.89
2023-05-06T03:32:42.761Z,10.81
2023-05-06T03:35:12.924Z,10.74
2023-05-06T03:37:42.365Z,10.73
2023-05-06T03:40:09.399Z,10.71
2023-05-06T03:42:35.942Z,10.66
2023-05-06T03:45:03.136Z,10.61
2023-05-06T03:47:32.192Z,10.62
2023-05-06T03:49:59.249Z,10.62
2023-05-06T03:52:26.009Z,10.62
2023-05-06T03:54:52.802Z,10.65
2023-05-06T03:57:19.250Z,10.71
2023-05-06T03:59:45.705Z,10.72
2023-05-06T04:02:12.228Z,10.69
2023-05-06T04:04:38.780Z,10.68
2023-05-06T04:07:05.214Z,10.63
2023-05-06T04:09:32.968Z,10.65
2023-05-06T04:12:03.294Z,10.70
2023-05-06T04:14:30.612Z,10.74
2023-05-06T04:16:57.566Z,10.67
2023-05-06T04:19:24.033Z,10.69
2023-05-06T04:21:50.523Z,10.74
2023-05-06T04:24:18.511Z,10.72
2023-05-06T04:26:45.734Z,10.72
2023-05-06T04:29:12.707Z,10.72
2023-05-06T04:31:55.609Z,10.72
2023-05-06T04:34:25.024Z,10.71
2023-05-06T04:36:54.180Z,10.72
2023-05-06T04:39:28.718Z,10.67
2023-05-06T04:41:56.633Z,10.72
2023-05-06T04:44:30.884Z,10.69
2023-05-06T04:46:57.715Z,10.72
2023-05-06T04:49:24.220Z,10.68
2023-05-06T04:51:51.655Z,10.62
2023-05-06T04:54:18.961Z,10.54
2023-05-06T04:56:45.877Z,10.51
2023-05-06T04:59:14.537Z,10.70
2023-05-06T05:01:42.710Z,10.72
2023-05-06T05:04:10.753Z,10.81
2023-05-06T05:06:37.509Z,10.84
2023-05-06T05:09:04.344Z,10.90
2023-05-06T05:11:31.626Z,10.96
2023-05-06T05:14:00.920Z,11.04
2023-05-06T05:16:28.988Z,11.06
2023-05-06T05:18:55.684Z,11.17
2023-05-06T05:21:27.606Z,11.13
2023-05-06T05:23:55.171Z,11.12
2023-05-06T05:26:21.763Z,11.12
2023-05-06T05:28:50.734Z,11.12
2023-05-06T05:31:17.240Z,11.14
2023-05-06T05:33:43.799Z,11.13
2023-05-06T05:36:15.366Z,11.17
2023-05-06T05:38:43.309Z,11.27
2023-05-06T05:41:10.237Z,11.40
2023-05-06T05:43:36.918Z,11.54
2023-05-06T05:46:03.655Z,11.64
2023-05-06T05:48:32.787Z,11.66
2023-05-06T05:51:02.272Z,11.79
2023-05-06T05:53:29.122Z,11.97
2023-05-06T05:55:55.721Z,12.09
2023-05-06T05:58:22.253Z,12.13
2023-05-06T06:00:49.063Z,12.16
2023-05-06T06:03:18.721Z,12.17
2023-05-06T06:05:45.215Z,12.24
2023-05-06T06:08:12.823Z,12.31
2023-05-06T06:10:39.883Z,12.31
2023-05-06T06:13:13.306Z,12.35
2023-05-06T06:15:40.557Z,12.37
2023-05-06T06:18:08.890Z,12.33
2023-05-06T06:20:36.809Z,12.35
2023-05-06T06:23:03.271Z,12.35
2023-05-06T06:25:29.735Z,12.32
2023-05-06T06:27:56.277Z,12.35
2023-05-06T06:30:23.883Z,12.37
2023-05-06T06:32:52.763Z,12.50
2023-05-06T06:35:20.152Z,12.66
2023-05-06T06:37:47.395Z,12.71
2023-05-06T06:40:14.056Z,12.86
2023-05-06T06:42:40.648Z,12.94
2023-05-06T06:45:18.912Z,13.08
2023-05-06T06:47:45.690Z,13.20
2023-05-06T06:50:12.418Z,13.32
2023-05-06T06:52:38.941Z,13.53
2023-05-06T06:55:05.786Z,13.64
2023-05-06T06:57:32.332Z,13.72
2023-05-06T06:59:58.754Z,13.81
2023-05-06T07:02:25.170Z,13.97
2023-05-06T07:04:52.078Z,14.05
2023-05-06T07:07:18.521Z,14.00
2023-05-06T07:09:44.956Z,13.98
2023-05-06T07:12:12.017Z,14.09
2023-05-06T07:14:38.434Z,14.21
2023-05-06T07:17:04.983Z,14.31
2023-05-06T07:19:31.611Z,14.25
2023-05-06T07:21:58.182Z,14.22
2023-05-06T07:24:24.744Z,14.32
2023-05-06T07:26:51.145Z,14.58
2023-05-06T07:29:17.658Z,14.66
2023-05-06T07:31:44.135Z,14.86
2023-05-06T07:34:11.017Z,14.97
2023-05-06T07:36:40.768Z,15.01
2023-05-06T07:39:07.874Z,15.08
2023-05-06T07:41:34.490Z,15.03
2023-05-06T07:44:01.373Z,15.19
2023-05-06T07:46:28.015Z,15.41
2023-05-06T07:48:54.506Z,15.48
2023-05-06T07:51:21.705Z,15.35
2023-05-06T07:53:48.119Z,15.41
2023-05-06T07:56:14.672Z,15.54
2023-05-06T07:58:41.131Z,15.75
2023-05-06T08:01:07.656Z,16.03
2023-05-06T08:03:35.121Z,16.19
2023-05-06T08:06:01.916Z,16.39
2023-05-06T08:08:28.408Z,16.50
2023-05-06T08:10:58.920Z,16.43
2023-05-06T08:13:26.132Z,16.31
2023-05-06T08:15:52.989Z,16.42
2023-05-06T08:18:22.931Z,16.45
2023-05-06T08:20:50.146Z,16.53
2023-05-06T08:23:16.718Z,16.45
2023-05-06T08:25:43.204Z,16.49
2023-05-06T08:28:09.629Z,16.55
2023-05-06T08:30:36.608Z,16.66
2023-05-06T08:33:03.246Z,16.55
2023-05-06T08:35:29.740Z,16.71
2023-05-06T08:37:56.149Z,16.53
2023-05-06T08:40:23.879Z,16.80
2023-05-06T08:42:50.801Z,16.74
2023-05-06T08:45:17.915Z,16.89
2023-05-06T08:47:44.924Z,16.62
2023-05-06T08:50:12.508Z,16.77
2023-05-06T08:52:39.684Z,16.83
2023-05-06T08:55:07.383Z,17.09
2023-05-06T08:57:36.884Z,17.44
2023-05-06T09:00:04.844Z,17.72
2023-05-06T09:02:31.431Z,17.83
2023-05-06T09:04:58.099Z,17.74
2023-05-06T09:07:24.593Z,17.92
2023-05-06T09:09:51.658Z,18.04
2023-05-06T09:12:18.509Z,18.02
2023-05-06T09:14:46.574Z,18.09
2023-05-06T09:17:28.151Z,18.05
2023-05-06T09:19:57.008Z,17.86
2023-05-06T09:22:24.689Z,17.55
2023-05-06T09:24:57.516Z,17.33
2023-05-06T09:27:29.078Z,17.45
2023-05-06T09:30:06.225Z,17.72
2023-05-06T09:32:33.504Z,17.97
2023-05-06T09:35:00.947Z,18.32
2023-05-06T09:37:28.207Z,18.57
2023-05-06T09:39:56.681Z,18.68
2023-05-06T09:42:25.322Z,18.79
2023-05-06T09:44:53.952Z,18.67
2023-05-06T09:47:27.859Z,18.66
2023-05-06T09:50:00.747Z,18.69
2023-05-06T09:52:28.488Z,18.98
2023-05-06T09:54:55.707Z,18.82
2023-05-06T09:57:22.825Z,18.43
2023-05-06T09:59:51.989Z,18.14
2023-05-06T10:02:19.670Z,18.01
2023-05-06T10:04:48.969Z,17.79
2023-05-06T10:07:19.686Z,17.76
2023-05-06T10:09:48.824Z,17.90
2023-05-06T10:12:16.386Z,17.87
2023-05-06T10:14:42.876Z,17.76
2023-05-06T10:17:11.494Z,17.61
2023-05-06T10:19:44.776Z,17.75
2023-05-06T10:22:33.985Z,17.66
2023-05-06T10:25:37.628Z,17.65
2023-05-06T10:28:07.280Z,17.65
2023-05-06T10:30:40.538Z,18.09
2023-05-06T10:33:09.458Z,18.56
2023-05-06T10:35:47.145Z,18.47
2023-05-06T10:38:26.661Z,18.86
2023-05-06T10:40:54.572Z,18.99
2023-05-06T10:43:34.100Z,19.02
2023-05-06T10:46:18.797Z,19.62
2023-05-06T10:49:08.484Z,19.60
2023-05-06T10:51:39.180Z,19.31
2023-05-06T10:54:20.588Z,19.64
2023-05-06T10:56:50.013Z,19.77
2023-05-06T10:59:25.785Z,19.86
2023-05-06T11:01:57.076Z,20.22
2023-05-06T11:04:23.639Z,20.42
2023-05-06T11:06:53.012Z,20.79
2023-05-06T11:09:24.591Z,20.93
2023-05-06T11:12:05.305Z,21.47
2023-05-06T11:14:37.793Z,21.78
2023-05-06T11:17:06.785Z,21.38
2023-05-06T11:19:34.243Z,21.16
2023-05-06T11:22:02.393Z,21.06
2023-05-06T11:24:37.966Z,21.19
2023-05-06T11:27:05.537Z,21.13
2023-05-06T11:29:32.260Z,21.42
2023-05-06T11:31:59.159Z,21.26
2023-05-06T11:34:28.691Z,20.87
2023-05-06T11:37:02.341Z,21.19
2023-05-06T11:39:31.152Z,21.22
2023-05-06T11:42:07.872Z,21.16
2023-05-06T11:44:36.749Z,20.89
2023-05-06T11:47:07.948Z,20.67
2023-05-06T11:49:43.692Z,20.62
2023-05-06T11:52:10.639Z,20.36
2023-05-06T11:54:41.792Z,20.51
2023-05-06T11:57:09.232Z,20.36
2023-05-06T11:59:37.776Z,20.31
2023-05-06T12:02:06.732Z,20.48
2023-05-06T12:04:48.139Z,20.95
2023-05-06T12:07:16.156Z,21.57
2023-05-06T12:09:45.738Z,21.84
2023-05-06T12:12:14.641Z,22.29
2023-05-06T12:14:41.678Z,21.69
2023-05-06T12:17:08.388Z,21.22
2023-05-06T12:19:36.506Z,20.95
2023-05-06T12:22:22.091Z,20.73
2023-05-06T12:24:48.996Z,20.72
2023-05-06T12:27:29.269Z,21.02
2023-05-06T12:29:56.534Z,21.22
2023-05-06T12:32:23.032Z,21.26
2023-05-06T12:34:49.501Z,21.03
2023-05-06T12:37:27.416Z,21.25
2023-05-06T12:39:55.682Z,21.21
2023-05-06T12:42:24.237Z,21.33
2023-05-06T12:44:50.857Z,21.04
2023-05-06T12:47:22.793Z,21.29
2023-05-06T12:49:53.652Z,21.79
2023-05-06T12:52:22.110Z,22.22
2023-05-06T12:54:49.457Z,22.28
2023-05-06T12:57:16.476Z,21.87
2023-05-06T12:59:45.298Z,21.78
2023-05-06T13:02:12.463Z,21.88
2023-05-06T13:04:39.342Z,21.93
2023-05-06T13:07:06.136Z,22.11
2023-05-06T13:09:33.159Z,22.92
2023-05-06T13:11:59.682Z,22.56
2023-05-06T13:14:26.448Z,22.79
2023-05-06T13:16:53.218Z,22.75
2023-05-06T13:19:31.678Z,22.43
2023-05-06T13:22:00.282Z,24.50
2023-05-06T13:24:27.040Z,26.43
2023-05-06T13:26:53.479Z,28.11
2023-05-06T13:29:19.953Z,28.52
2023-05-06T13:31:46.412Z,26.45
2023-05-06T13:34:12.872Z,25.68
2023-05-06T13:36:39.362Z,27.31
2023-05-06T13:39:05.897Z,29.30
2023-05-06T13:41:32.784Z,31.16
2023-05-06T13:43:59.323Z,32.84
2023-05-06T13:46:27.182Z,33.14
2023-05-06T13:48:53.677Z,33.34
2023-05-06T13:51:20.173Z,33.12
2023-05-06T13:53:46.606Z,32.28
2023-05-06T13:56:13.087Z,31.33
2023-05-06T13:58:39.515Z,32.56
2023-05-06T14:01:06.072Z,32.66
2023-05-06T14:03:32.527Z,30.42
2023-05-06T14:05:59.046Z,31.78
2023-05-06T14:08:25.661Z,31.52
2023-05-06T14:10:52.084Z,29.36
2023-05-06T14:13:18.530Z,28.73
2023-05-06T14:15:45.066Z,29.80
2023-05-06T14:18:11.760Z,31.78
2023-05-06T14:20:39.064Z,30.38
2023-05-06T14:23:06.903Z,31.37
2023-05-06T14:25:33.408Z,29.35
2023-05-06T14:28:00.193Z,28.82
2023-05-06T14:30:26.697Z,28.74
2023-05-06T14:32:53.139Z,31.73
2023-05-06T14:35:19.789Z,32.97
2023-05-06T14:37:46.385Z,32.57
2023-05-06T14:40:13.193Z,31.34
2023-05-06T14:42:40.748Z,30.94
2023-05-06T14:45:08.036Z,30.59
2023-05-06T14:47:34.611Z,32.28
2023-05-06T14:50:01.079Z,33.28
2023-05-06T14:52:27.599Z,33.23
2023-05-06T14:54:54.010Z,34.08
2023-05-06T14:57:20.649Z,34.95
2023-05-06T14:59:47.246Z,33.66
2023-05-06T15:02:13.799Z,32.26
2023-05-06T15:04:40.300Z,32.51
2023-05-06T15:07:06.722Z,32.60
2023-05-06T15:09:33.157Z,30.76
2023-05-06T15:12:00.403Z,29.55
2023-05-06T15:14:26.836Z,29.38
2023-05-06T15:16:57.174Z,28.99
2023-05-06T15:19:24.037Z,29.32
2023-05-06T15:21:50.961Z,28.44
2023-05-06T15:24:17.452Z,28.48
2023-05-06T15:26:44.008Z,29.17
2023-05-06T15:29:10.484Z,28.65
2023-05-06T15:31:39.412Z,27.81
2023-05-06T15:34:07.091Z,28.71
2023-05-06T15:36:33.615Z,29.88
2023-05-06T15:39:01.044Z,30.37
2023-05-06T15:41:29.384Z,30.59
2023-05-06T15:44:00.303Z,30.46
2023-05-06T15:46:28.347Z,30.06
2023-05-06T15:49:15.637Z,29.83
2023-05-06T15:51:41.966Z,29.72
2023-05-06T15:54:08.844Z,29.28
2023-05-06T15:56:40.586Z,29.33
2023-05-06T15:59:08.228Z,29.25
2023-05-06T16:02:00.698Z,29.03
2023-05-06T16:04:21.485Z,29.15
2023-05-06T16:06:48.176Z,29.04
2023-05-06T16:09:14.741Z,28.42
2023-05-06T16:11:41.161Z,27.52
2023-05-06T16:14:07.606Z,27.39
2023-05-06T16:16:34.065Z,26.70
2023-05-06T16:19:00.579Z,25.98
2023-05-06T16:21:27.181Z,26.01
2023-05-06T16:23:53.650Z,26.03
2023-05-06T16:26:20.151Z,25.59
2023-05-06T16:28:46.578Z,25.64
2023-05-06T16:31:13.035Z,25.26
2023-05-06T16:33:39.493Z,25.80
2023-05-06T16:36:06.398Z,25.90
2023-05-06T16:38:32.902Z,25.83
2023-05-06T16:40:59.331Z,25.91
2023-05-06T16:43:25.913Z,25.71
2023-05-06T16:45:52.329Z,25.45
2023-05-06T16:48:18.929Z,25.17
2023-05-06T16:50:46.195Z,24.90
2023-05-06T16:53:12.713Z,24.77
2023-05-06T16:55:39.163Z,24.46
2023-05-06T16:58:05.676Z,24.27
2023-05-06T17:00:32.292Z,24.03
2023-05-06T17:02:58.962Z,23.81
2023-05-06T17:05:27.979Z,23.82
2023-05-06T17:07:54.422Z,23.87
2023-05-06T17:10:21.942Z,23.73
2023-05-06T17:12:48.404Z,23.67
2023-05-06T17:15:15.043Z,23.60
2023-05-06T17:17:41.593Z,23.60
2023-05-06T17:20:08.707Z,23.57
2023-05-06T17:22:35.746Z,23.38
2023-05-06T17:25:03.369Z,23.18
2023-05-06T17:27:30.228Z,22.80
2023-05-06T17:29:56.647Z,22.72
2023-05-06T17:32:23.074Z,22.66
2023-05-06T17:34:49.587Z,22.36
2023-05-06T17:37:16.188Z,22.17
2023-05-06T17:39:42.642Z,21.99
2023-05-06T17:42:09.673Z,21.83
2023-05-06T17:44:37.994Z,21.72
2023-05-06T17:47:04.442Z,21.49
2023-05-06T17:49:31.141Z,21.30
2023-05-06T17:51:59.284Z,20.99
2023-05-06T17:54:26.719Z,20.76
2023-05-06T17:56:53.171Z,20.65
2023-05-06T17:59:20.943Z,20.58
2023-05-06T18:01:47.708Z,20.42
2023-05-06T18:04:14.352Z,20.34
2023-05-06T18:06:42.285Z,20.20
2023-05-06T18:09:10.255Z,20.05
2023-05-06T18:11:38.646Z,19.97
2023-05-06T18:14:05.913Z,19.76
2023-05-06T18:16:32.434Z,19.70
2023-05-06T18:19:00.838Z,19.55
2023-05-06T18:21:27.775Z,19.36
2023-05-06T18:23:58.796Z,19.23
2023-05-06T18:26:44.047Z,19.09
2023-05-06T18:29:12.258Z,18.87
2023-05-06T18:31:38.752Z,18.60
2023-05-06T18:34:05.236Z,18.46
2023-05-06T18:36:32.074Z,18.38
2023-05-06T18:38:58.556Z,18.19
2023-05-06T18:41:25.027Z,17.94
2023-05-06T18:43:51.436Z,17.85
2023-05-06T18:46:17.927Z,17.76
2023-05-06T18:48:44.884Z,17.58
2023-05-06T18:51:17.005Z,17.52
2023-05-06T18:53:44.048Z,17.40
2023-05-06T18:56:10.785Z,17.24
2023-05-06T18:58:38.873Z,17.18
2023-05-06T19:01:07.103Z,17.05
2023-05-06T19:03:34.836Z,16.94
2023-05-06T19:06:03.186Z,16.82
2023-05-06T19:08:30.840Z,16.69
2023-05-06T19:10:59.539Z,16.60
2023-05-06T19:13:26.541Z,16.49
2023-05-06T19:15:53.436Z,16.43
2023-05-06T19:18:19.910Z,16.16
2023-05-06T19:20:46.512Z,16.04
2023-05-06T19:23:13.165Z,15.97
2023-05-06T19:25:39.793Z,15.95
2023-05-06T19:28:06.522Z,15.93
2023-05-06T19:30:34.538Z,15.83
2023-05-06T19:33:02.072Z,15.69
2023-05-06T19:35:28.553Z,15.57
2023-05-06T19:37:56.068Z,15.51
2023-05-06T19:40:22.724Z,15.36
2023-05-06T19:42:49.439Z,15.25
2023-05-06T19:45:17.517Z,15.23
2023-05-06T19:47:45.726Z,15.23
2023-05-06T19:50:12.786Z,15.16
2023-05-06T19:52:39.870Z,15.01
2023-05-06T19:55:06.872Z,14.93
2023-05-06T19:57:33.872Z,14.85
2023-05-06T20:00:05.135Z,14.75
2023-05-06T20:02:32.793Z,14.74
2023-05-06T20:05:00.345Z,14.67
2023-05-06T20:07:27.259Z,14.55
2023-05-06T20:09:55.457Z,14.47
2023-05-06T20:12:23.054Z,14.41
2023-05-06T20:14:49.685Z,14.43
2023-05-06T20:17:16.588Z,14.37
2023-05-06T20:19:43.097Z,14.32
2023-05-06T20:22:09.556Z,14.29
2023-05-06T20:24:37.072Z,14.18
2023-05-06T20:27:03.661Z,14.14
2023-05-06T20:29:30.111Z,14.12
2023-05-06T20:31:56.570Z,14.05
2023-05-06T20:34:22.968Z,13.94
2023-05-06T20:36:49.877Z,13.94
2023-05-06T20:39:16.514Z,13.88
2023-05-06T20:41:42.952Z,13.76
2023-05-06T20:44:09.453Z,13.72
2023-05-06T20:46:36.066Z,13.60
2023-05-06T20:49:02.512Z,13.54
2023-05-06T20:51:28.998Z,13.49
2023-05-06T20:53:56.519Z,13.45
2023-05-06T20:56:27.324Z,13.41
2023-05-06T20:58:55.424Z,13.36
2023-05-06T21:01:23.575Z,13.39
2023-05-06T21:03:50.252Z,13.40
2023-05-06T21:06:17.783Z,13.30
2023-05-06T21:08:45.626Z,13.32
2023-05-06T21:11:12.653Z,13.28
2023-05-06T21:13:39.824Z,13.25
2023-05-06T21:16:06.219Z,13.21
2023-05-06T21:18:32.726Z,13.13
2023-05-06T21:20:59.716Z,13.05
2023-05-06T21:23:26.473Z,12.97
2023-05-06T21:25:53.025Z,12.94
2023-05-06T21:28:19.450Z,12.92
2023-05-06T21:30:46.027Z,12.87
2023-05-06T21:33:12.631Z,12.86
2023-05-06T21:35:39.068Z,12.84
2023-05-06T21:38:05.505Z,12.79
2023-05-06T21:40:31.939Z,12.79
2023-05-06T21:42:58.418Z,12.74
2023-05-06T21:45:24.922Z,12.72
2023-05-06T21:47:51.427Z,12.66
2023-05-06T21:50:17.933Z,12.66
2023-05-06T21:52:44.363Z,12.60
2023-05-06T21:55:11.221Z,12.51
2023-05-06T21:57:38.679Z,12.45
2023-05-06T22:00:12.112Z,12.50
2023-05-06T22:02:40.011Z,12.44
2023-05-06T22:05:08.258Z,12.39
2023-05-06T22:07:35.748Z,12.40
2023-05-06T22:10:02.510Z,12.37
2023-05-06T22:12:29.037Z,12.30
2023-05-06T22:14:55.876Z,12.23
2023-05-06T22:17:22.489Z,12.25
2023-05-06T22:19:48.993Z,12.16
2023-05-06T22:22:16.251Z,12.09
2023-05-06T22:24:42.881Z,12.13
2023-05-06T22:27:09.300Z,12.11
2023-05-06T22:29:35.952Z,12.05
2023-05-06T22:32:02.570Z,12.04
2023-05-06T22:34:29.121Z,12.02
2023-05-06T22:36:57.592Z,12.07
2023-05-06T22:39:24.771Z,12.04
2023-05-06T22:41:52.257Z,11.98
2023-05-06T22:44:18.669Z,11.94
2023-05-06T22:46:45.185Z,11.88
2023-05-06T22:49:11.602Z,11.84
2023-05-06T22:51:38.033Z,11.83
2023-05-06T22:54:04.535Z,11.80
2023-05-06T22:56:31.085Z,11.72
2023-05-06T22:58:57.518Z,11.72
2023-05-06T23:01:26.062Z,11.70
2023-05-06T23:03:52.805Z,11.70
2023-05-06T23:06:19.294Z,11.67
2023-05-06T23:08:45.763Z,11.66
2023-05-06T23:11:12.181Z,11.68
2023-05-06T23:13:38.600Z,11.66
2023-05-06T23:16:07.619Z,11.64
2023-05-06T23:18:34.083Z,11.63
2023-05-06T23:21:00.514Z,11.61
2023-05-06T23:23:26.926Z,11.58
2023-05-06T23:25:53.353Z,11.54
2023-05-06T23:28:20.654Z,11.55
2023-05-06T23:30:47.220Z,11.53
2023-05-06T23:33:14.204Z,11.48
2023-05-06T23:35:40.909Z,11.42
2023-05-06T23:38:07.488Z,11.39
2023-05-06T23:40:33.956Z,11.37
2023-05-06T23:43:00.487Z,11.34
2023-05-06T23:45:27.065Z,11.28
2023-05-06T23:47:53.965Z,11.30
2023-05-06T23:50:20.563Z,11.31
2023-05-06T23:52:47.084Z,11.27
2023-05-06T23:55:13.668Z,11.28
2023-05-06T23:57:40.336Z,11.23
